createdAt,value
2024-02-03T00:00:21.308Z,100236.97
2024-02-03T00:06:23.755Z,100237.84
2024-02-03T00:12:30.548Z,100195.09
2024-02-03T00:18:33.391Z,100195.53
2024-02-03T00:24:36.181Z,100197.91
2024-02-03T00:30:38.605Z,100096.34
2024-02-03T00:36:41.093Z,100190.59
2024-02-03T00:42:44.584Z,100211.09
2024-02-03T00:48:47.191Z,100143.38
2024-02-03T00:54:49.659Z,100144.06
2024-02-03T01:00:52.105Z,100116.75
2024-02-03T01:06:57.523Z,100156.44
2024-02-03T01:12:59.854Z,100145.41
2024-02-03T01:19:01.997Z,100100.34
2024-02-03T01:25:04.788Z,99971.47
2024-02-03T01:31:07.301Z,100121.13
2024-02-03T01:37:09.708Z,100038.50
2024-02-03T01:43:15.147Z,100074.81
2024-02-03T01:49:17.843Z,99944.09
2024-02-03T01:55:21.301Z,100015.66
2024-02-03T02:01:25.617Z,100000.75
2024-02-03T02:07:31.040Z,99962.25
2024-02-03T02:13:34.510Z,100009.16
2024-02-03T02:19:37.114Z,99984.66
2024-02-03T02:25:39.436Z,99976.47
2024-02-03T02:31:41.897Z,99974.16
2024-02-03T02:37:44.375Z,99957.03
2024-02-03T02:43:46.794Z,99861.59
2024-02-03T02:49:49.344Z,99923.34
2024-02-03T02:55:54.787Z,99934.34
2024-02-03T03:01:58.368Z,99904.47
2024-02-03T03:08:00.786Z,99885.03
2024-02-03T03:14:03.174Z,99907.16
2024-02-03T03:20:06.709Z,99896.13
2024-02-03T03:26:09.150Z,99901.59
2024-02-03T03:32:11.183Z,99886.44
2024-02-03T03:38:14.071Z,99875.28
2024-02-03T03:44:16.563Z,99870.78
2024-02-03T03:50:19.003Z,99849.31
2024-02-03T03:56:22.423Z,99851.25
2024-02-03T04:02:24.891Z,99606.00
2024-02-03T04:08:27.407Z,99828.97
2024-02-03T04:14:29.814Z,99838.44
2024-02-03T04:20:33.347Z,99821.91
2024-02-03T04:26:41.798Z,99816.78
2024-02-03T04:32:44.287Z,99622.13
2024-02-03T04:38:46.717Z,99793.44
2024-02-03T04:44:49.124Z,99789.88
2024-02-03T04:50:52.645Z,99744.25
2024-02-03T04:56:55.044Z,99655.81
2024-02-03T05:03:00.851Z,99599.53
2024-02-03T05:09:07.002Z,99743.50
2024-02-03T05:15:10.502Z,99766.66
2024-02-03T05:21:13.029Z,99617.63
2024-02-03T05:27:15.424Z,99418.28
2024-02-03T05:33:25.230Z,99779.88
2024-02-03T05:39:33.465Z,99773.28
2024-02-03T05:45:36.936Z,99713.94
2024-02-03T05:51:39.365Z,99768.53
2024-02-03T05:57:51.447Z,99759.72
2024-02-03T06:03:56.380Z,99758.78
2024-02-03T06:09:58.848Z,99764.88
2024-02-03T06:16:02.239Z,99763.00
2024-02-03T06:22:07.730Z,99758.81
2024-02-03T06:28:12.204Z,99729.41
2024-02-03T06:34:20.556Z,99728.13
2024-02-03T06:40:29.566Z,99714.97
2024-02-03T06:46:31.678Z,99608.53
2024-02-03T06:52:40.173Z,99670.66
2024-02-03T06:58:42.333Z,99684.66
2024-02-03T07:04:48.177Z,99562.03
2024-02-03T07:10:50.631Z,99695.94
2024-02-03T07:16:53.058Z,99638.59
2024-02-03T07:22:55.652Z,99339.91
2024-02-03T07:29:01.995Z,99655.59
2024-02-03T07:35:08.594Z,99662.59
2024-02-03T07:41:11.190Z,99633.22
2024-02-03T07:47:16.422Z,99637.06
2024-02-03T07:53:18.621Z,99644.38
2024-02-03T07:59:28.889Z,99398.84
2024-02-03T08:05:31.923Z,99585.28
2024-02-03T08:11:37.343Z,99601.28
2024-02-03T08:17:41.836Z,99605.53
2024-02-03T08:23:47.016Z,99409.22
2024-02-03T08:29:49.969Z,99320.38
2024-02-03T08:35:52.668Z,99585.78
2024-02-03T08:41:57.679Z,99614.38
2024-02-03T08:48:03.294Z,99605.72
2024-02-03T08:54:06.780Z,99605.13
2024-02-03T09:00:16.236Z,99583.50
2024-02-03T09:06:22.865Z,99581.09
2024-02-03T09:12:29.118Z,99516.91
2024-02-03T09:18:34.754Z,99621.28
2024-02-03T09:24:37.115Z,99614.09
2024-02-03T09:30:39.526Z,99602.78
2024-02-03T09:42:51.552Z,99528.72
2024-02-03T09:48:57.219Z,99556.22
2024-02-03T09:55:00.493Z,99551.19
2024-02-03T10:01:02.895Z,99516.84
2024-02-03T10:07:05.389Z,99541.78
2024-02-03T10:13:17.824Z,99522.09
2024-02-03T10:19:23.371Z,99511.16
2024-02-03T10:25:36.158Z,99482.84
2024-02-03T10:31:51.361Z,99341.84
2024-02-03T10:37:53.723Z,99448.41
2024-02-03T10:44:03.281Z,99466.19
2024-02-03T10:50:11.794Z,99322.06
2024-02-03T10:56:22.108Z,99400.34
2024-02-03T11:02:29.696Z,99460.59
2024-02-03T11:08:35.334Z,99435.78
2024-02-03T11:14:40.661Z,99469.09
2024-02-03T11:20:43.110Z,99478.03
2024-02-03T11:27:06.652Z,99469.44
2024-02-03T11:33:10.207Z,99462.38
2024-02-03T11:39:16.656Z,99459.53
2024-02-03T11:45:26.161Z,99458.53
2024-02-03T11:51:29.595Z,99407.75
2024-02-03T11:57:32.038Z,99411.84
2024-02-03T12:03:35.532Z,99348.28
2024-02-03T12:09:38.058Z,99458.47
2024-02-03T12:15:40.438Z,99471.31
2024-02-03T12:21:43.067Z,99417.63
2024-02-03T12:27:46.489Z,99418.59
2024-02-03T12:33:51.867Z,99400.53
2024-02-03T12:39:54.410Z,99432.81
2024-02-03T12:46:01.882Z,99459.88
2024-02-03T12:52:10.249Z,99389.31
2024-02-03T12:58:12.723Z,99468.28
2024-02-03T13:04:25.710Z,99472.97
2024-02-03T13:10:31.785Z,99449.91
2024-02-03T13:16:36.223Z,99472.09
2024-02-03T13:22:40.725Z,99418.53
2024-02-03T13:28:47.756Z,99468.81
2024-02-03T13:35:01.899Z,99480.66
2024-02-03T13:41:05.271Z,99484.88
2024-02-03T13:47:07.619Z,99365.44
2024-02-03T13:53:11.116Z,99481.75
2024-02-03T13:59:13.529Z,99278.75
2024-02-03T14:05:21.463Z,99496.66
2024-02-03T14:11:41.344Z,99482.41
2024-02-03T14:17:52.111Z,99505.53
2024-02-03T14:23:54.487Z,99496.81
2024-02-03T14:30:01.079Z,99519.09
2024-02-03T14:36:03.482Z,99527.56
2024-02-03T14:42:06.927Z,99523.81
2024-02-03T14:48:09.390Z,99475.13
2024-02-03T14:54:16.869Z,99519.88
2024-02-03T15:00:27.352Z,99516.13
2024-02-03T15:06:30.849Z,99514.56
2024-02-03T15:12:36.290Z,99510.44
2024-02-03T15:18:50.180Z,99496.31
2024-02-03T15:24:53.292Z,99532.69
2024-02-03T15:30:55.778Z,99528.03
2024-02-03T15:37:05.648Z,99542.59
2024-02-03T15:43:10.702Z,99563.00
2024-02-03T15:49:13.255Z,99498.56
2024-02-03T15:55:15.785Z,99438.00
2024-02-03T16:01:26.220Z,99408.53
2024-02-03T16:07:28.591Z,99468.94
2024-02-03T16:13:30.961Z,99567.78
2024-02-03T16:19:33.558Z,99524.66
2024-02-03T16:25:36.952Z,99549.44
2024-02-03T16:31:40.087Z,99554.84
2024-02-03T16:37:42.828Z,99570.97
2024-02-03T16:43:46.289Z,99582.06
2024-02-03T16:49:51.915Z,99581.41
2024-02-03T16:55:54.309Z,99590.22
2024-02-03T17:01:59.927Z,99594.41
2024-02-03T17:08:05.275Z,99594.31
2024-02-03T17:14:16.782Z,99587.56
2024-02-03T17:20:19.184Z,99595.94
2024-02-03T17:26:21.662Z,99592.59
2024-02-03T17:32:26.214Z,99597.47
2024-02-03T17:38:31.640Z,99601.34
2024-02-03T17:44:35.097Z,99562.94
2024-02-03T17:50:37.514Z,99578.94
2024-02-03T17:56:40.005Z,99548.69
2024-02-03T18:02:44.157Z,99570.38
2024-02-03T18:08:46.977Z,99592.41
2024-02-03T18:14:49.400Z,99499.16
2024-02-03T18:20:51.891Z,99590.53
2024-02-03T18:26:55.344Z,99533.16
2024-02-03T18:32:57.912Z,99539.00
2024-02-03T18:39:00.274Z,99585.44
2024-02-03T18:45:02.744Z,99462.59
2024-02-03T18:51:05.235Z,99437.00
2024-02-03T18:57:11.565Z,99571.97
2024-02-03T19:03:13.597Z,99536.78
2024-02-03T19:09:21.029Z,99565.13
2024-02-03T19:15:24.211Z,99561.00
2024-02-03T19:21:26.648Z,99559.50
2024-02-03T19:27:30.089Z,99537.41
2024-02-03T19:33:32.611Z,99543.78
2024-02-03T19:39:34.920Z,99554.56
2024-02-03T19:45:40.462Z,99527.94
2024-02-03T19:51:45.941Z,99574.78
2024-02-03T19:57:49.084Z,99562.84
2024-02-03T20:03:53.841Z,99560.50
2024-02-03T20:09:56.447Z,99577.53
2024-02-03T20:15:58.869Z,99528.78
2024-02-03T20:22:05.289Z,99540.06
2024-02-03T20:28:07.796Z,99565.94
2024-02-03T20:34:18.518Z,99545.78
2024-02-03T20:40:20.818Z,99478.78
2024-02-03T20:46:23.413Z,99513.09
2024-02-03T20:52:25.705Z,99534.63
2024-02-03T20:58:28.246Z,99513.25
2024-02-03T21:04:30.733Z,99545.03
2024-02-03T21:10:34.372Z,99502.28
2024-02-03T21:16:37.650Z,99539.44
2024-02-03T21:22:40.153Z,99529.56
2024-02-03T21:28:42.515Z,99535.63
2024-02-03T21:34:46.003Z,99420.66
2024-02-03T21:40:48.446Z,99541.03
2024-02-03T21:46:52.104Z,99541.69
2024-02-03T21:52:56.319Z,99510.41
2024-02-03T21:59:01.228Z,99539.53
2024-02-03T22:05:04.315Z,99540.72
2024-02-03T22:11:06.478Z,99491.94
2024-02-03T22:17:09.192Z,99488.69
2024-02-03T22:23:11.647Z,99532.31
2024-02-03T22:29:19.936Z,99540.56
2024-02-03T22:35:34.644Z,99529.59
2024-02-03T22:41:37.106Z,99284.66
2024-02-03T22:47:39.707Z,99498.94
2024-02-03T22:53:41.981Z,99497.44
2024-02-03T22:59:47.539Z,99501.16
2024-02-03T23:05:50.083Z,99469.00
2024-02-03T23:11:53.478Z,99408.94
2024-02-03T23:17:58.154Z,99453.38
2024-02-03T23:24:01.402Z,99496.13
2024-02-03T23:30:05.903Z,99442.75
2024-02-03T23:36:10.420Z,99473.09
2024-02-03T23:42:12.862Z,99397.03
2024-02-03T23:48:18.367Z,99452.53
2024-02-03T23:54:20.847Z,99497.97
